Time;durP1;ratioP1;P1;durP2;ratioP2;P2;SDS_P1;SDS_P2;PMS_P1;PMS_P2;Temp;Humidity;BMP_temperature;BMP_pressure;BME280_temperature;BME280_humidity;BME280_pressure;Samples;Min_cycle;Max_cycle;Signal;HPM_P1;HPM_P2
2021/07/30 00:02:00;;;;;;;9.40;5.90;;;23.60;63.40;;;;;;1848904;76;21043;-55
2021/07/30 00:04:29;;;;;;;9.45;5.03;;;23.60;63.60;;;;;;1848805;78;21125;-55
2021/07/30 00:06:59;;;;;;;8.13;5.08;;;23.60;63.90;;;;;;1848862;77;21051;-55
2021/07/30 00:09:28;;;;;;;13.20;5.50;;;23.50;64.30;;;;;;1855199;77;21054;-55
2021/07/30 00:11:58;;;;;;;7.50;6.15;;;23.50;64.60;;;;;;1858520;77;21124;-55
2021/07/30 00:14:27;;;;;;;11.80;5.60;;;23.50;64.60;;;;;;1858681;77;21058;-55
2021/07/30 00:16:57;;;;;;;21.10;6.45;;;23.50;64.60;;;;;;1858548;76;21124;-55
2021/07/30 00:19:26;;;;;;;10.05;6.35;;;23.50;64.40;;;;;;1858713;77;21062;-55
2021/07/30 00:21:56;;;;;;;9.35;5.60;;;23.40;64.60;;;;;;1858581;76;21077;-55
2021/07/30 00:24:25;;;;;;;8.50;5.72;;;23.30;64.90;;;;;;1858673;76;21074;-55
2021/07/30 00:26:55;;;;;;;14.07;6.20;;;23.20;65.10;;;;;;1858568;77;21015;-55
2021/07/30 00:29:24;;;;;;;14.90;6.05;;;23.10;65.40;;;;;;1858587;77;21098;-55
2021/07/30 00:31:54;;;;;;;7.33;5.53;;;23.10;65.50;;;;;;1858579;77;21180;-55
2021/07/30 00:34:23;;;;;;;8.20;5.12;;;23.00;65.90;;;;;;1858683;77;21089;-55
2021/07/30 00:36:53;;;;;;;7.10;5.10;;;22.90;65.90;;;;;;1858549;77;21042;-55
2021/07/30 00:39:22;;;;;;;14.18;5.53;;;22.90;66.60;;;;;;1858720;77;21046;-55
2021/07/30 00:41:51;;;;;;;8.05;5.05;;;22.90;66.30;;;;;;1858804;77;21050;-55
2021/07/30 00:44:21;;;;;;;6.55;5.55;;;22.90;66.40;;;;;;1858692;77;21042;-55
2021/07/30 00:46:52;;;;;;;8.05;5.42;;;23.00;66.60;;;;;;1858588;77;21108;-55
2021/07/30 00:49:21;;;;;;;5.58;5.08;;;23.00;66.20;;;;;;1858584;77;21050;-55
2021/07/30 00:51:51;;;;;;;7.72;5.67;;;23.10;66.20;;;;;;1858518;77;21112;-55
2021/07/30 00:54:23;;;;;;;8.88;6.03;;;23.10;66.00;;;;;;1858697;76;21043;-55
2021/07/30 00:56:53;;;;;;;9.53;6.75;;;23.10;65.90;;;;;;1858586;76;21221;-55
2021/07/30 00:59:25;;;;;;;7.80;6.58;;;23.10;65.90;;;;;;1858605;77;21046;-54
2021/07/30 01:01:54;;;;;;;11.25;7.12;;;23.20;65.80;;;;;;1830037;77;21101;-53
2021/07/30 01:04:24;;;;;;;7.53;6.67;;;23.20;65.90;;;;;;1858564;77;21026;-55
2021/07/30 01:06:53;;;;;;;8.88;7.45;;;23.20;65.80;;;;;;1858589;77;21054;-55
2021/07/30 01:09:23;;;;;;;11.08;7.78;;;23.20;65.50;;;;;;1854976;76;21050;-55
2021/07/30 01:11:53;;;;;;;9.55;7.70;;;23.10;65.40;;;;;;1848692;77;21050;-55
2021/07/30 01:14:22;;;;;;;8.60;6.92;;;23.00;65.20;;;;;;1848764;76;21027;-55
2021/07/30 01:16:52;;;;;;;9.80;6.70;;;22.90;65.30;;;;;;1848849;78;21223;-54
2021/07/30 01:19:23;;;;;;;7.37;6.67;;;22.80;65.80;;;;;;1848819;78;21022;-55
2021/07/30 01:21:53;;;;;;;7.33;6.70;;;22.80;66.00;;;;;;1848746;78;21513;-55
2021/07/30 01:24:26;;;;;;;8.05;6.80;;;22.80;65.80;;;;;;1848761;77;21082;-55
2021/07/30 01:26:56;;;;;;;9.13;6.80;;;22.90;65.70;;;;;;1848669;76;21038;-54
2021/07/30 01:29:29;;;;;;;8.50;6.75;;;22.90;65.30;;;;;;1848938;77;21255;-55
2021/07/30 01:31:56;;;;;;;7.83;6.37;;;23.00;65.10;;;;;;1848562;77;21133;-55
2021/07/30 01:34:26;;;;;;;10.58;6.03;;;23.00;65.00;;;;;;1848833;78;21124;-55
2021/07/30 01:36:55;;;;;;;9.58;6.83;;;23.10;64.90;;;;;;1848838;78;21046;-54
2021/07/30 01:39:24;;;;;;;15.25;7.87;;;23.10;64.80;;;;;;1848808;78;21168;-55
2021/07/30 01:41:54;;;;;;;8.38;6.40;;;23.00;64.20;;;;;;1848835;78;21039;-54
2021/07/30 01:44:23;;;;;;;10.58;6.55;;;22.90;64.00;;;;;;1848723;78;21046;-54
2021/07/30 01:46:52;;;;;;;8.53;5.92;;;22.70;64.30;;;;;;1848780;78;21497;-55
2021/07/30 01:49:22;;;;;;;10.55;5.75;;;22.50;64.50;;;;;;1848835;76;21067;-55
2021/07/30 01:51:51;;;;;;;6.97;6.10;;;22.40;65.00;;;;;;1848696;77;21097;-55
2021/07/30 01:54:20;;;;;;;7.00;5.97;;;22.30;65.40;;;;;;1848725;78;21222;-55
2021/07/30 01:56:50;;;;;;;8.53;5.45;;;22.20;65.70;;;;;;1848677;77;21128;-54
2021/07/30 01:59:19;;;;;;;6.72;5.33;;;22.20;66.00;;;;;;1848732;76;21055;-54
2021/07/30 02:01:49;;;;;;;9.90;5.92;;;22.30;65.90;;;;;;1848808;77;21051;-55
2021/07/30 02:04:18;;;;;;;8.98;5.15;;;22.30;65.30;;;;;;1848759;76;21046;-55
2021/07/30 02:06:48;;;;;;;33.95;7.35;;;22.30;65.00;;;;;;1848758;76;21067;-54
2021/07/30 02:09:18;;;;;;;17.87;5.85;;;22.20;65.10;;;;;;1849490;76;21113;-55
2021/07/30 02:11:51;;;;;;;9.28;4.95;;;22.10;65.70;;;;;;1858533;76;21079;-55
2021/07/30 02:14:18;;;;;;;9.75;5.45;;;22.10;66.20;;;;;;1858331;77;21141;-55
2021/07/30 02:16:53;;;;;;;11.38;5.37;;;22.20;66.30;;;;;;1858536;77;21096;-55
2021/07/30 02:19:23;;;;;;;8.10;5.37;;;22.20;65.70;;;;;;1858663;77;21113;-55
2021/07/30 02:21:55;;;;;;;8.25;5.22;;;22.20;65.90;;;;;;1858554;77;21116;-55
2021/07/30 02:24:24;;;;;;;11.18;5.28;;;22.20;65.80;;;;;;1858572;77;21163;-55
2021/07/30 02:26:54;;;;;;;7.30;4.90;;;22.20;65.90;;;;;;1858483;76;21144;-55
2021/07/30 02:29:23;;;;;;;7.17;4.72;;;22.30;65.90;;;;;;1858534;77;21046;-55
2021/07/30 02:31:52;;;;;;;7.40;5.03;;;22.40;65.70;;;;;;1858606;76;21073;-55
2021/07/30 02:34:22;;;;;;;5.58;4.97;;;22.50;65.60;;;;;;1858634;76;21140;-55
2021/07/30 02:36:52;;;;;;;7.65;5.20;;;22.50;65.50;;;;;;1858526;76;21046;-55
2021/07/30 02:39:21;;;;;;;7.58;5.10;;;22.60;65.40;;;;;;1858529;77;21046;-55
2021/07/30 02:41:50;;;;;;;7.75;5.08;;;22.70;65.30;;;;;;1858464;77;21046;-55
2021/07/30 02:44:20;;;;;;;7.62;4.97;;;22.80;65.30;;;;;;1858544;76;21121;-55
2021/07/30 02:46:49;;;;;;;9.80;5.70;;;23.00;64.90;;;;;;1858600;77;21030;-55
2021/07/30 02:49:19;;;;;;;7.90;4.85;;;23.10;64.20;;;;;;1858664;77;21042;-55
2021/07/30 02:51:48;;;;;;;12.25;5.92;;;23.10;63.70;;;;;;1858473;77;21093;-55
2021/07/30 02:54:18;;;;;;;9.10;5.35;;;23.00;63.80;;;;;;1858513;77;21062;-55
2021/07/30 02:56:47;;;;;;;10.30;5.47;;;22.90;64.00;;;;;;1858564;76;21022;-55
2021/07/30 02:59:17;;;;;;;16.12;6.00;;;22.90;64.00;;;;;;1858525;77;21042;-55
2021/07/30 03:01:46;;;;;;;8.60;5.30;;;22.90;63.80;;;;;;1858543;76;21050;-55
2021/07/30 03:04:16;;;;;;;6.10;5.45;;;22.70;63.50;;;;;;1858590;77;21026;-55
2021/07/30 03:06:45;;;;;;;9.70;5.42;;;22.60;63.50;;;;;;1858459;76;21140;-55
2021/07/30 03:09:15;;;;;;;7.80;5.30;;;22.50;64.00;;;;;;1858620;76;21187;-55
2021/07/30 03:11:44;;;;;;;10.23;5.75;;;22.50;64.50;;;;;;1858354;76;21179;-55
2021/07/30 03:14:14;;;;;;;13.32;5.60;;;22.50;64.20;;;;;;1858517;77;21034;-55
2021/07/30 03:16:43;;;;;;;7.35;5.42;;;22.60;64.20;;;;;;1858476;77;21088;-55
2021/07/30 03:19:12;;;;;;;8.85;5.78;;;22.70;64.50;;;;;;1858606;77;21043;-55
2021/07/30 03:21:42;;;;;;;5.70;5.10;;;22.80;64.00;;;;;;1858540;76;21043;-55
2021/07/30 03:24:11;;;;;;;6.33;5.25;;;22.80;64.30;;;;;;1858586;76;21062;-55
2021/07/30 03:26:41;;;;;;;10.38;5.08;;;22.90;63.90;;;;;;1858519;76;21022;-55
2021/07/30 03:29:10;;;;;;;15.13;5.78;;;22.90;63.80;;;;;;1858500;77;21118;-55
2021/07/30 03:31:41;;;;;;;8.35;5.15;;;23.00;63.70;;;;;;1858462;77;21472;-55
2021/07/30 03:34:10;;;;;;;7.42;5.35;;;23.00;64.20;;;;;;1858540;77;21113;-55
2021/07/30 03:36:40;;;;;;;15.38;5.78;;;23.10;63.60;;;;;;1858464;77;21034;-55
2021/07/30 03:39:10;;;;;;;7.45;5.17;;;23.30;63.60;;;;;;1858536;76;21054;-55
2021/07/30 03:41:39;;;;;;;12.28;5.50;;;23.40;63.40;;;;;;1858461;77;21079;-55
2021/07/30 03:44:09;;;;;;;9.38;4.95;;;23.50;62.90;;;;;;1858610;76;21054;-55
2021/07/30 03:46:38;;;;;;;12.58;5.50;;;23.60;62.80;;;;;;1858470;77;21117;-55
2021/07/30 03:49:08;;;;;;;7.33;5.05;;;23.70;62.60;;;;;;1858452;76;21046;-55
2021/07/30 03:51:37;;;;;;;6.35;5.28;;;23.80;62.20;;;;;;1858431;77;21169;-55
2021/07/30 03:54:07;;;;;;;18.07;9.55;;;23.80;62.10;;;;;;1858631;76;21054;-55
2021/07/30 03:56:41;;;;;;;27.32;13.78;;;23.80;62.00;;;;;;1858569;76;21120;-55
2021/07/30 03:59:11;;;;;;;27.32;15.20;;;23.90;62.00;;;;;;1858786;76;21046;-55
2021/07/30 04:01:50;;;;;;;12.35;8.95;;;24.00;61.90;;;;;;1858628;77;21026;-55
2021/07/30 04:04:16;;;;;;;10.82;6.58;;;24.00;61.70;;;;;;1857670;77;21050;-55
2021/07/30 04:06:47;;;;;;;12.78;6.33;;;24.10;61.90;;;;;;1858508;77;21099;-55
2021/07/30 04:09:17;;;;;;;11.53;5.87;;;24.10;61.90;;;;;;1858776;77;21195;-55
2021/07/30 04:11:46;;;;;;;12.20;6.75;;;24.20;62.00;;;;;;1858448;77;21081;-55
2021/07/30 04:14:16;;;;;;;8.50;5.95;;;24.20;61.90;;;;;;1858591;77;21042;-55
2021/07/30 04:16:45;;;;;;;11.48;5.78;;;24.20;62.00;;;;;;1858575;77;21046;-55
2021/07/30 04:19:15;;;;;;;9.85;5.47;;;24.30;62.10;;;;;;1858552;76;21074;-55
2021/07/30 04:21:44;;;;;;;6.20;5.10;;;24.30;62.10;;;;;;1858492;77;21353;-55
2021/07/30 04:24:13;;;;;;;7.53;5.50;;;24.40;62.10;;;;;;1858578;76;21125;-55
2021/07/30 04:26:44;;;;;;;10.10;5.55;;;24.50;62.20;;;;;;1858382;77;21046;-55
2021/07/30 04:29:14;;;;;;;12.63;7.47;;;24.50;62.20;;;;;;1858507;76;21074;-55
2021/07/30 04:31:43;;;;;;;8.00;5.03;;;24.60;62.10;;;;;;1858594;76;21046;-53
2021/07/30 04:34:13;;;;;;;10.35;5.85;;;24.60;62.20;;;;;;1858686;76;21038;-55
2021/07/30 04:36:42;;;;;;;17.70;6.15;;;24.60;62.30;;;;;;1858631;76;21062;-55
2021/07/30 04:39:12;;;;;;;9.38;4.87;;;24.70;62.20;;;;;;1858597;77;21096;-55
2021/07/30 04:41:41;;;;;;;7.10;4.78;;;24.80;62.10;;;;;;1858626;77;21042;-55
2021/07/30 04:44:11;;;;;;;8.28;5.45;;;24.90;61.70;;;;;;1858603;76;21517;-55
2021/07/30 04:46:40;;;;;;;7.17;4.95;;;25.00;61.80;;;;;;1858527;77;21022;-55
2021/07/30 04:49:10;;;;;;;9.85;6.05;;;25.10;61.60;;;;;;1858599;77;21038;-55
2021/07/30 04:51:39;;;;;;;8.55;5.25;;;25.20;61.70;;;;;;1858538;77;21027;-55
2021/07/30 04:54:08;;;;;;;8.73;5.55;;;25.30;61.80;;;;;;1858720;76;21566;-55
2021/07/30 04:56:38;;;;;;;9.65;5.35;;;25.40;61.70;;;;;;1858561;77;21116;-55
2021/07/30 04:59:07;;;;;;;10.25;5.72;;;25.50;61.50;;;;;;1858578;77;21058;-55
2021/07/30 05:01:41;;;;;;;8.03;5.95;;;25.70;61.20;;;;;;1858627;77;21050;-55
2021/07/30 05:04:09;;;;;;;6.50;4.70;;;25.80;60.90;;;;;;1858012;77;21121;-55
2021/07/30 05:06:38;;;;;;;13.70;6.40;;;26.00;60.20;;;;;;1858443;76;21129;-55
2021/07/30 05:09:07;;;;;;;10.82;5.12;;;26.20;59.30;;;;;;1858607;76;21047;-55
2021/07/30 05:11:37;;;;;;;14.28;5.30;;;26.40;58.60;;;;;;1858490;76;21098;-55
2021/07/30 05:14:06;;;;;;;10.60;8.88;;;26.50;58.30;;;;;;1858426;76;21164;-55
2021/07/30 05:16:35;;;;;;;15.38;6.17;;;26.60;58.00;;;;;;1858464;76;21082;-55
2021/07/30 05:19:05;;;;;;;9.25;6.62;;;26.70;57.60;;;;;;1858493;77;21339;-54
2021/07/30 05:21:35;;;;;;;14.45;6.83;;;26.90;57.20;;;;;;1858507;76;21050;-55
2021/07/30 05:24:05;;;;;;;19.85;8.75;;;27.00;56.80;;;;;;1858604;77;21108;-55
2021/07/30 05:26:34;;;;;;;11.25;8.08;;;27.20;56.40;;;;;;1858411;76;21042;-55
2021/07/30 05:29:08;;;;;;;15.43;7.83;;;27.30;55.50;;;;;;1858531;77;21022;-55
2021/07/30 05:31:37;;;;;;;12.58;7.17;;;27.40;55.00;;;;;;1858712;77;21187;-55
2021/07/30 05:34:07;;;;;;;11.48;6.58;;;27.50;55.20;;;;;;1858627;76;21046;-55
2021/07/30 05:36:36;;;;;;;11.83;6.75;;;27.60;55.10;;;;;;1858485;77;21046;-55
2021/07/30 05:39:06;;;;;;;11.78;6.17;;;27.70;54.60;;;;;;1858604;76;21121;-55
2021/07/30 05:41:35;;;;;;;10.38;5.22;;;27.80;54.60;;;;;;1858505;77;21050;-55
2021/07/30 05:44:05;;;;;;;6.95;4.45;;;27.90;54.80;;;;;;1858591;76;21030;-55
2021/07/30 05:46:36;;;;;;;15.78;5.10;;;28.00;54.60;;;;;;1858374;76;21148;-55
2021/07/30 05:49:06;;;;;;;4.72;4.08;;;28.10;54.00;;;;;;1858617;76;21090;-55
2021/07/30 05:51:37;;;;;;;6.67;4.22;;;28.20;52.80;;;;;;1858496;76;21113;-55
2021/07/30 05:54:06;;;;;;;6.42;4.60;;;28.20;52.40;;;;;;1858618;77;21116;-55
2021/07/30 05:56:36;;;;;;;11.20;4.20;;;28.30;52.00;;;;;;1858543;77;21148;-55
2021/07/30 05:59:05;;;;;;;11.33;5.53;;;28.30;50.70;;;;;;1858512;77;21129;-55
2021/07/30 06:01:35;;;;;;;13.40;6.15;;;28.40;50.50;;;;;;1858422;77;21030;-55
2021/07/30 06:04:04;;;;;;;11.70;4.85;;;28.40;50.30;;;;;;1858510;77;21066;-55
2021/07/30 06:06:34;;;;;;;7.62;4.17;;;28.60;50.00;;;;;;1858427;77;21132;-55
2021/07/30 06:09:03;;;;;;;5.97;4.40;;;28.70;49.60;;;;;;1858642;76;21050;-55
2021/07/30 06:11:33;;;;;;;6.72;3.98;;;28.80;49.20;;;;;;1858418;76;21047;-54
2021/07/30 06:14:03;;;;;;;11.65;4.97;;;28.80;49.40;;;;;;1848729;76;21079;-55
2021/07/30 06:16:32;;;;;;;5.55;4.50;;;28.90;49.20;;;;;;1848798;77;21137;-55
2021/07/30 06:19:02;;;;;;;10.65;4.67;;;29.00;49.20;;;;;;1848807;76;21537;-55
2021/07/30 06:21:32;;;;;;;9.18;4.87;;;29.20;49.40;;;;;;1848653;78;21117;-55
2021/07/30 06:24:02;;;;;;;7.90;4.62;;;29.30;49.20;;;;;;1848812;76;21117;-55
2021/07/30 06:26:32;;;;;;;6.92;4.83;;;29.40;49.10;;;;;;1848626;76;21112;-55
2021/07/30 06:29:01;;;;;;;10.48;4.72;;;29.50;48.80;;;;;;1848721;77;21046;-55
2021/07/30 06:31:31;;;;;;;6.20;4.40;;;29.60;47.60;;;;;;1848647;76;21063;-55
2021/07/30 06:34:00;;;;;;;12.20;4.35;;;29.60;46.60;;;;;;1848714;76;21047;-55
2021/07/30 06:36:29;;;;;;;6.30;3.60;;;29.70;45.50;;;;;;1848631;76;21039;-55
2021/07/30 06:38:59;;;;;;;5.83;4.00;;;29.70;45.10;;;;;;1848770;78;21141;-55
2021/07/30 06:41:28;;;;;;;8.15;4.30;;;29.80;45.10;;;;;;1848820;77;21023;-55
2021/07/30 06:43:58;;;;;;;5.55;4.40;;;29.80;45.20;;;;;;1848743;76;21268;-55
2021/07/30 06:46:28;;;;;;;10.10;4.42;;;29.90;44.80;;;;;;1848702;76;21473;-55
2021/07/30 06:48:57;;;;;;;11.60;4.60;;;30.00;44.50;;;;;;1848751;77;21047;-55
2021/07/30 06:51:26;;;;;;;17.20;4.67;;;30.00;44.40;;;;;;1848778;76;21043;-55
2021/07/30 06:53:56;;;;;;;12.60;4.37;;;30.10;43.60;;;;;;1848656;76;21114;-55
2021/07/30 06:56:25;;;;;;;8.48;4.35;;;30.20;43.60;;;;;;1848651;77;21094;-55
2021/07/30 06:58:55;;;;;;;6.03;4.20;;;30.30;43.20;;;;;;1848713;78;21043;-55
2021/07/30 07:01:24;;;;;;;9.60;3.95;;;30.40;42.70;;;;;;1848739;78;21031;-55
2021/07/30 07:03:54;;;;;;;10.95;4.58;;;30.40;42.40;;;;;;1848730;76;21035;-55
2021/07/30 07:06:23;;;;;;;10.72;4.67;;;30.50;42.60;;;;;;1848680;76;21071;-55
2021/07/30 07:08:53;;;;;;;6.37;4.40;;;30.60;42.10;;;;;;1827674;78;21042;-55
2021/07/30 07:11:22;;;;;;;10.90;5.37;;;30.60;41.60;;;;;;1848637;76;21105;-55
2021/07/30 07:13:52;;;;;;;9.85;5.30;;;30.70;41.70;;;;;;1855628;77;21082;-55
2021/07/30 07:16:21;;;;;;;10.25;4.97;;;30.70;41.60;;;;;;1858490;77;21066;-55
2021/07/30 07:18:50;;;;;;;11.73;4.70;;;30.70;41.20;;;;;;1858457;77;21499;-55
2021/07/30 07:21:19;;;;;;;11.43;5.72;;;30.80;41.20;;;;;;1858396;76;21434;-55
2021/07/30 07:23:50;;;;;;;12.18;6.08;;;30.90;41.30;;;;;;1858410;77;21038;-55
2021/07/30 07:26:20;;;;;;;15.08;7.50;;;31.00;41.30;;;;;;1858434;77;21096;-56
2021/07/30 07:28:49;;;;;;;12.65;6.85;;;31.10;41.80;;;;;;1857126;77;21121;-57
2021/07/30 07:31:20;;;;;;;16.17;7.45;;;31.10;41.10;;;;;;1858004;77;21116;-56
2021/07/30 07:33:49;;;;;;;20.52;8.25;;;31.20;41.20;;;;;;1857883;76;21077;-56
2021/07/30 07:36:19;;;;;;;16.85;8.28;;;31.20;41.00;;;;;;1857808;77;21046;-56
2021/07/30 07:38:48;;;;;;;32.40;10.88;;;31.20;41.00;;;;;;1857898;76;21027;-56
2021/07/30 07:41:18;;;;;;;15.95;8.30;;;31.40;41.10;;;;;;1857967;77;21100;-55
2021/07/30 07:43:47;;;;;;;26.87;10.20;;;31.40;40.90;;;;;;1857932;77;21128;-56
2021/07/30 07:46:16;;;;;;;15.25;8.50;;;31.40;40.60;;;;;;1858079;77;21176;-56
2021/07/30 07:48:46;;;;;;;21.05;9.90;;;31.40;40.80;;;;;;1829045;77;21097;-56
2021/07/30 07:51:15;;;;;;;16.27;8.23;;;31.40;41.20;;;;;;1857848;77;21086;-56
2021/07/30 07:53:44;;;;;;;17.30;7.90;;;31.40;41.00;;;;;;1857973;76;21046;-56
2021/07/30 07:56:14;;;;;;;12.75;7.17;;;31.50;40.80;;;;;;1857997;77;21497;-55
2021/07/30 07:58:43;;;;;;;19.75;6.90;;;31.50;40.40;;;;;;1857806;77;21063;-53
2021/07/30 08:01:17;;;;;;;12.75;7.15;;;31.50;40.40;;;;;;1857984;77;21098;-55
2021/07/30 08:03:46;;;;;;;10.87;6.60;;;31.50;40.40;;;;;;1858321;77;21098;-52
2021/07/30 08:06:23;;;;;;;23.75;7.08;;;31.50;40.20;;;;;;1857862;77;21050;-51
2021/07/30 08:08:52;;;;;;;11.63;5.42;;;31.50;40.10;;;;;;1857949;77;21077;-57
2021/07/30 08:11:21;;;;;;;9.45;5.67;;;31.60;40.00;;;;;;1858054;77;21212;-57
2021/07/30 08:13:51;;;;;;;15.60;5.92;;;31.60;39.50;;;;;;1853256;76;21086;-57
2021/07/30 08:16:25;;;;;;;7.83;5.03;;;31.70;38.90;;;;;;1848492;76;21134;-57
2021/07/30 08:18:55;;;;;;;6.85;4.22;;;31.70;38.50;;;;;;1847701;77;21208;-57
2021/07/30 08:21:26;;;;;;;7.12;4.75;;;31.80;38.70;;;;;;1848737;78;21121;-57
2021/07/30 08:23:55;;;;;;;8.70;5.40;;;31.80;38.20;;;;;;1848737;78;21503;-57
2021/07/30 08:26:24;;;;;;;11.05;7.78;;;31.80;38.10;;;;;;1848775;76;21097;-57
2021/07/30 08:28:53;;;;;;;11.35;5.33;;;31.90;38.40;;;;;;1847760;77;21126;-56
2021/07/30 08:31:29;;;;;;;9.23;5.50;;;32.00;38.50;;;;;;1848098;77;21043;-57
2021/07/30 08:33:58;;;;;;;8.15;4.60;;;32.10;38.40;;;;;;1848099;76;21129;-56
2021/07/30 08:36:28;;;;;;;8.80;4.65;;;32.20;38.70;;;;;;1847681;77;21126;-56
2021/07/30 08:38:57;;;;;;;10.75;5.05;;;32.30;38.80;;;;;;1847978;76;21121;-56
2021/07/30 08:41:27;;;;;;;5.90;4.58;;;32.40;38.40;;;;;;1848081;76;21090;-56
2021/07/30 08:43:57;;;;;;;14.68;5.33;;;32.50;38.40;;;;;;1847776;78;21042;-55
2021/07/30 08:46:27;;;;;;;15.58;5.05;;;32.50;37.60;;;;;;1848476;76;21082;-55
2021/07/30 08:48:57;;;;;;;9.20;4.85;;;32.50;37.40;;;;;;1848094;76;21196;-54
2021/07/30 08:51:32;;;;;;;6.55;4.00;;;32.50;37.20;;;;;;1847822;77;21097;-55
2021/07/30 08:54:00;;;;;;;14.70;4.63;;;32.50;37.10;;;;;;1848357;76;21051;-55
2021/07/30 08:56:29;;;;;;;6.03;4.00;;;32.60;37.50;;;;;;1848055;78;21054;-55
2021/07/30 08:58:59;;;;;;;8.30;5.17;;;32.60;37.30;;;;;;1847807;76;21047;-55
2021/07/30 09:01:28;;;;;;;10.35;4.72;;;32.70;36.60;;;;;;1848135;77;21124;-56
2021/07/30 09:03:58;;;;;;;7.53;4.37;;;32.70;36.60;;;;;;1848102;76;21116;-56
2021/07/30 09:06:27;;;;;;;9.45;4.10;;;32.70;36.60;;;;;;1847738;77;21180;-56
2021/07/30 09:08:59;;;;;;;12.33;4.65;;;32.70;35.90;;;;;;1848136;76;21085;-57
2021/07/30 09:11:30;;;;;;;7.65;4.28;;;32.80;35.70;;;;;;1847564;76;21110;-55
2021/07/30 09:14:02;;;;;;;8.23;5.10;;;32.90;35.60;;;;;;1848120;76;21486;-56
2021/07/30 09:16:31;;;;;;;11.15;4.95;;;32.90;35.60;;;;;;1848149;77;21162;-54
2021/07/30 09:19:07;;;;;;;13.48;4.83;;;32.90;35.20;;;;;;1848251;78;21055;-56
2021/07/30 09:21:36;;;;;;;10.13;4.20;;;33.00;35.00;;;;;;1848001;76;21195;-55
2021/07/30 09:24:20;;;;;;;5.28;4.08;;;33.10;35.00;;;;;;1848283;76;21090;-54
2021/07/30 09:26:53;;;;;;;8.03;4.20;;;33.10;34.50;;;;;;1848105;77;21039;-60
2021/07/30 09:29:27;;;;;;;12.50;5.93;;;33.10;34.40;;;;;;1848107;78;21133;-56
2021/07/30 09:32:05;;;;;;;9.53;4.37;;;33.10;34.60;;;;;;1848182;77;21031;-56
2021/07/30 09:34:43;;;;;;;8.25;4.28;;;33.20;34.60;;;;;;1848020;76;21161;-56
2021/07/30 09:37:26;;;;;;;5.75;3.58;;;33.20;34.20;;;;;;1848124;76;21555;-56
2021/07/30 09:39:55;;;;;;;7.03;3.77;;;33.20;33.70;;;;;;1848002;78;21204;-56
2021/07/30 09:42:33;;;;;;;7.25;4.35;;;33.20;33.40;;;;;;1847791;77;21110;-56
2021/07/30 09:45:13;;;;;;;8.63;4.50;;;33.30;33.60;;;;;;1848084;76;21473;-52
2021/07/30 09:47:48;;;;;;;8.15;4.28;;;33.30;33.80;;;;;;1847432;76;21482;-55
2021/07/30 09:50:22;;;;;;;6.87;3.58;;;33.40;33.90;;;;;;1844902;76;21102;-51
2021/07/30 09:52:53;;;;;;;9.60;4.33;;;33.40;33.40;;;;;;1848555;76;21121;-52
2021/07/30 09:55:24;;;;;;;13.20;4.75;;;33.50;33.50;;;;;;1848002;76;21117;-52
2021/07/30 09:57:54;;;;;;;10.90;4.83;;;33.50;33.60;;;;;;1847853;76;21106;-52
2021/07/30 10:00:23;;;;;;;9.05;4.10;;;33.50;33.20;;;;;;1848004;77;21090;-55
2021/07/30 10:02:53;;;;;;;6.90;3.80;;;33.60;33.90;;;;;;1848155;78;21133;-55
2021/07/30 10:05:23;;;;;;;5.65;3.92;;;33.60;33.10;;;;;;1847771;76;21184;-55
2021/07/30 10:07:53;;;;;;;5.40;3.90;;;33.60;33.00;;;;;;1848024;76;21106;-52
2021/07/30 10:15:25;;;;;;;6.75;3.80;;;33.70;32.70;;;;;;1853369;76;21125;-52
2021/07/30 10:17:56;;;;;;;5.40;3.62;;;33.70;32.80;;;;;;1857978;76;21138;-55
2021/07/30 10:20:27;;;;;;;6.35;3.45;;;33.70;32.70;;;;;;1857622;76;21078;-55
2021/07/30 10:23:05;;;;;;;4.95;3.35;;;33.80;33.00;;;;;;1857862;77;21164;-55
2021/07/30 10:25:39;;;;;;;10.15;5.33;;;33.70;32.70;;;;;;1857808;76;21039;-54
2021/07/30 10:28:14;;;;;;;11.18;4.03;;;33.70;32.80;;;;;;1857511;77;21168;-53
2021/07/30 10:31:08;;;;;;;4.92;3.42;;;33.60;32.70;;;;;;1857274;77;21183;-52
2021/07/30 10:33:40;;;;;;;14.73;5.28;;;33.60;32.40;;;;;;1857783;77;21602;-51
2021/07/30 10:36:17;;;;;;;7.65;3.30;;;33.60;33.10;;;;;;1857709;77;21042;-52
2021/07/30 10:38:42;;;;;;;5.12;3.42;;;33.60;32.30;;;;;;1856383;77;21026;-54
2021/07/30 10:41:14;;;;;;;5.22;3.20;;;33.70;32.00;;;;;;1857502;76;21182;-55
2021/07/30 10:44:04;;;;;;;9.83;4.15;;;33.70;32.00;;;;;;1857754;77;21059;-53
2021/07/30 10:46:34;;;;;;;9.75;3.10;;;33.70;31.90;;;;;;1857930;77;21094;-54
2021/07/30 10:49:06;;;;;;;6.62;3.25;;;33.80;31.90;;;;;;1858130;77;21113;-56
2021/07/30 10:51:36;;;;;;;10.08;3.35;;;33.80;32.00;;;;;;1851206;76;21072;-55
2021/07/30 10:54:10;;;;;;;7.83;4.35;;;33.90;31.90;;;;;;1858650;77;21112;-56
2021/07/30 10:56:41;;;;;;;7.05;3.62;;;33.90;32.00;;;;;;1857337;77;21078;-56
2021/07/30 10:59:11;;;;;;;8.08;3.37;;;33.90;31.90;;;;;;1858397;77;21054;-56
2021/07/30 11:01:43;;;;;;;9.60;3.60;;;34.00;31.70;;;;;;1858496;77;21070;-56
2021/07/30 11:04:12;;;;;;;4.85;3.08;;;34.00;31.70;;;;;;1858411;77;21500;-56
2021/07/30 11:06:44;;;;;;;6.03;3.30;;;34.10;31.70;;;;;;1858425;77;21054;-56
2021/07/30 11:09:18;;;;;;;6.58;3.47;;;34.10;31.40;;;;;;1858463;77;21038;-56
2021/07/30 11:11:52;;;;;;;7.33;3.52;;;34.10;31.60;;;;;;1858732;77;21505;-56
2021/07/30 11:14:36;;;;;;;5.75;3.35;;;34.10;31.80;;;;;;1858532;76;21093;-55
2021/07/30 11:17:07;;;;;;;5.62;3.83;;;34.20;31.60;;;;;;1858704;77;21037;-56
2021/07/30 11:19:49;;;;;;;9.60;2.90;;;34.20;31.70;;;;;;1858485;77;21051;-56
2021/07/30 11:22:20;;;;;;;6.22;3.37;;;34.30;32.00;;;;;;1858614;76;21353;-56
2021/07/30 11:24:51;;;;;;;5.28;3.12;;;34.30;30.70;;;;;;1858435;77;21105;-56
2021/07/30 11:27:23;;;;;;;9.48;4.15;;;34.30;30.60;;;;;;1858475;76;21085;-56
2021/07/30 11:29:55;;;;;;;6.85;4.78;;;34.40;30.90;;;;;;1858484;76;21125;-56
2021/07/30 11:32:24;;;;;;;18.95;3.95;;;34.40;30.80;;;;;;1858624;76;21062;-56
2021/07/30 11:34:55;;;;;;;4.97;2.85;;;34.30;30.20;;;;;;1858498;77;21120;-56
2021/07/30 11:37:30;;;;;;;4.85;3.33;;;34.30;30.30;;;;;;1858487;77;21026;-56
2021/07/30 11:40:01;;;;;;;14.25;4.30;;;34.30;30.50;;;;;;1858447;77;21054;-56
2021/07/30 11:42:38;;;;;;;3.80;2.85;;;34.30;30.50;;;;;;1858484;77;21505;-56
2021/07/30 11:45:07;;;;;;;6.83;3.33;;;34.30;30.30;;;;;;1856909;77;21112;-56
2021/07/30 11:47:39;;;;;;;5.08;3.30;;;34.30;30.70;;;;;;1858615;77;21136;-56
2021/07/30 11:50:14;;;;;;;5.90;2.92;;;34.40;30.90;;;;;;1858442;77;21645;-56
2021/07/30 11:52:43;;;;;;;6.42;3.52;;;34.40;30.20;;;;;;1858524;77;21574;-56
2021/07/30 11:55:20;;;;;;;5.70;3.42;;;34.40;30.80;;;;;;1858331;77;21160;-56
2021/07/30 11:57:52;;;;;;;6.08;3.37;;;34.40;30.50;;;;;;1858448;76;21124;-56
2021/07/30 12:00:29;;;;;;;5.92;3.65;;;34.50;30.50;;;;;;1858434;76;21141;-56
2021/07/30 12:03:00;;;;;;;7.85;3.72;;;34.50;30.90;;;;;;1858378;76;21097;-56
2021/07/30 12:05:35;;;;;;;7.03;3.60;;;34.50;31.10;;;;;;1855221;77;21175;-56
2021/07/30 12:08:06;;;;;;;5.28;3.40;;;34.50;31.90;;;;;;1857479;77;21071;-56
2021/07/30 12:10:36;;;;;;;12.33;5.05;;;34.50;31.30;;;;;;1858399;76;21050;-56
2021/07/30 12:13:07;;;;;;;6.83;4.08;;;34.50;31.30;;;;;;1858388;76;21117;-56
2021/07/30 12:15:39;;;;;;;7.30;4.28;;;34.40;31.00;;;;;;1856904;76;21078;-56
2021/07/30 12:18:09;;;;;;;6.78;3.52;;;34.30;31.10;;;;;;1848711;76;21086;-56
2021/07/30 12:20:39;;;;;;;6.67;4.03;;;34.30;31.60;;;;;;1848627;78;21098;-56
2021/07/30 12:23:11;;;;;;;7.97;4.83;;;34.30;31.70;;;;;;1848672;77;21180;-56
2021/07/30 12:25:54;;;;;;;4.58;3.20;;;34.30;32.00;;;;;;1848623;76;21117;-56
2021/07/30 12:28:21;;;;;;;9.73;3.65;;;34.30;31.80;;;;;;1847856;77;21113;-56
2021/07/30 12:30:52;;;;;;;7.08;3.83;;;34.30;31.90;;;;;;1848844;78;21044;-56
2021/07/30 12:33:33;;;;;;;11.10;4.20;;;34.30;31.90;;;;;;1848750;78;21500;-56
2021/07/30 12:36:08;;;;;;;10.13;4.20;;;34.20;32.20;;;;;;1848646;77;21050;-57
2021/07/30 12:38:59;;;;;;;10.30;4.25;;;34.10;32.60;;;;;;1848765;76;21046;-57
2021/07/30 12:41:34;;;;;;;4.60;3.58;;;34.00;32.80;;;;;;1848695;78;21026;-56
2021/07/30 12:44:16;;;;;;;6.12;3.67;;;33.80;32.90;;;;;;1847733;77;21102;-57
2021/07/30 12:46:58;;;;;;;8.75;4.17;;;33.80;33.00;;;;;;1848777;77;21066;-57
2021/07/30 12:49:38;;;;;;;7.03;4.22;;;33.80;32.80;;;;;;1847168;77;21505;-57
2021/07/30 12:52:13;;;;;;;9.00;3.58;;;33.80;32.90;;;;;;1847539;77;21120;-57
2021/07/30 12:54:43;;;;;;;8.75;4.03;;;33.80;32.90;;;;;;1848684;78;21148;-57
2021/07/30 12:57:12;;;;;;;15.40;8.38;;;33.80;33.20;;;;;;1848591;78;21181;-57
2021/07/30 13:00:07;;;;;;;40.30;17.73;;;33.80;33.30;;;;;;1848697;76;21132;-57
2021/07/30 13:02:36;;;;;;;10.00;5.53;;;33.70;33.50;;;;;;1846845;77;21520;-56
2021/07/30 13:05:02;;;;;;;8.53;3.77;;;33.70;33.50;;;;;;1848221;76;21113;-57
2021/07/30 13:07:31;;;;;;;5.83;4.25;;;33.60;34.00;;;;;;1848824;76;21030;-56